Soleil Weather Down

Nearby METAR Reports

 

KCNI - Canton/Cherokee, Georgia, USA
Distance from station: ENE 6mi, 10km
Updated: Sat, 20-Apr-2019 4:15pm EDT
Overcast
Overcast
 Wind from WSW
Wind: WSW 10 mph , 17 km/h, Gust: 17 mph , 28 km/h
Temperature: 46°F , 8°C
Wind Chill: 41°F , 5°C
Dew Point: 45°F , 7°C
Humidity: 93%
Barometer: 29.82 inHg , 1009.8 hPa
Clouds: Overcast
Visibility: 10 miles , 16 km
Cloud details: Mostly cloudy 1000 ft
Overcast 1600 ft
2019/04/20 20:15 KCNI 202015Z AUTO 25009G15KT 10SM BKN010 OVC016 08/07 A2982 RMK AO2
KRYY - Marietta Mccolum, Georgia, USA
Distance from station: SSW 18mi, 29km
Updated: Sat, 20-Apr-2019 3:48pm EDT
Overcast
Overcast
 Wind from W
Wind: W 17 mph , 28 km/h, Gust: 26 mph , 43 km/h
Temperature: 48°F , 9°C
Wind Chill: 42°F , 6°C
Dew Point: 41°F , 5°C
Humidity: 76%
Barometer: 29.83 inHg , 1010.2 hPa
Clouds: Overcast
Visibility: 10 miles , 16 km
Cloud details: Overcast 1700 ft
2019/04/20 19:48 KRYY 201948Z 27015G23KT 10SM OVC017 09/05 A2983 RMK AO2 RAE1850B10E22 SLP824 P0000 T00890050
KVPC - Cartersville, Georgia, USA
Distance from station: WSW 22mi, 35km
Updated: Sat, 20-Apr-2019 3:53pm EDT
Overcast
Overcast
 Wind from varies
Wind: varies 3 mph , 6 km/h
Temperature: 46°F , 8°C
Dew Point: 41°F , 5°C
Humidity: 82%
Barometer: 29.84 inHg , 1010.5 hPa
Clouds: Overcast
Visibility: 10 miles , 16 km
Cloud details: Overcast 2200 ft
2019/04/20 19:53 KVPC 201953Z AUTO VRB03KT 10SM OVC022 08/05 A2984 RMK AO2 SLP101 T00830050
 
KMGE - Dobbins Afb/Mari, Georgia, USA
Distance from station: S 24mi, 39km
Updated: Sat, 20-Apr-2019 3:56pm EDT
Overcast
Overcast
 Wind from W
Wind: W 16 mph , 26 km/h
Temperature: 48°F , 9°C
Wind Chill: 42°F , 6°C
Dew Point: 43°F , 6°C
Humidity: 82%
Barometer: 29.81 inHg , 1009.5 hPa
Clouds: Overcast
Visibility: 7 miles , 11 km
Cloud details: Partly cloudy 1900 ft
Overcast 2900 ft
2019/04/20 19:56 KMGE 201956Z 27014KT 7SM SCT019 OVC029 09/06 A2981 RMK A02A SCT V BKN SLP098 P0000 60004 T00870056 52013 $
KPDK - Peachtree/Dekalb, Georgia, USA
Distance from station: SSE 29mi, 47km
Updated: Sat, 20-Apr-2019 4:18pm EDT
Overcast
Overcast
 Wind from W
Wind: W 10 mph , 17 km/h
Temperature: 46°F , 8°C
Wind Chill: 41°F , 5°C
Dew Point: 41°F , 5°C
Humidity: 82%
Barometer: 29.82 inHg , 1009.8 hPa
Clouds: Overcast
Visibility: 10 miles , 16 km
Cloud details: Mostly cloudy 1900 ft
Mostly cloudy 2900 ft
Overcast 3500 ft
2019/04/20 20:18 KPDK 202018Z AUTO 28009KT 10SM BKN019 BKN029 OVC035 08/05 A2982 RMK AO2 T00830050 $
KFTY - Atlanta/Fulton, Georgia, USA
Distance from station: S 34mi, 54km
Updated: Sat, 20-Apr-2019 3:53pm EDT
Overcast
Overcast
 Wind from W
Wind: W 10 mph , 17 km/h, Gust: 20 mph , 31 km/h
Temperature: 48°F , 9°C
Wind Chill: 44°F , 7°C
Dew Point: 43°F , 6°C
Humidity: 82%
Barometer: 29.83 inHg , 1010.2 hPa
Clouds: Overcast
Visibility: 10 miles , 16 km
Cloud details: Overcast 2500 ft
2019/04/20 19:53 KFTY 201953Z 28009G17KT 10SM OVC025 09/06 A2983 RMK AO2 SLP101 T00890061
 
KPUJ - Atlanta/Paulding, Georgia, USA
Distance from station: SW 34mi, 55km
Updated: Sat, 20-Apr-2019 4:15pm EDT
Overcast
Overcast
 Wind from WNW
Wind: WNW 8 mph , 13 km/h
Temperature: 46°F , 8°C
Wind Chill: 42°F , 6°C
Dew Point: 43°F , 6°C
Humidity: 87%
Barometer: 29.83 inHg , 1010.2 hPa
Clouds: Overcast
Visibility: 10 miles , 16 km
Cloud details: Overcast 1800 ft
2019/04/20 20:15 KPUJ 202015Z AUTO 30007KT 260V330 10SM OVC018 08/06 A2983 RMK AO2
KDNN - Dalton, Georgia, USA
Distance from station: NW 37mi, 59km
Updated: Sat, 20-Apr-2019 4:15pm EDT
Overcast
Overcast
 Wind from W
Wind: W 7 mph , 11 km/h
Temperature: 50°F , 10°C
Wind Chill: 47°F , 8°C
Dew Point: 45°F , 7°C
Humidity: 82%
Barometer: 29.83 inHg , 1010.2 hPa
Clouds: Overcast
Visibility: 10 miles , 16 km
Cloud details: Partly cloudy 2000 ft
Mostly cloudy 3200 ft
Overcast 4600 ft
2019/04/20 20:15 KDNN 202015Z AUTO 26006KT 10SM SCT020 BKN032 OVC046 10/07 A2983 RMK AO2
KLZU - Lawrenceville, Georgia, USA
Distance from station: ESE 37mi, 59km
Updated: Sat, 20-Apr-2019 3:56pm EDT
Light rain, Overcast
Light rain, Overcast
 Wind from WSW
Wind: WSW 13 mph , 20 km/h
Temperature: 48°F , 9°C
Wind Chill: 43°F , 6°C
Dew Point: 45°F , 7°C
Humidity: 87%
Barometer: 29.80 inHg , 1009.1 hPa
Summary: Light rain
Clouds: Overcast
Visibility: 10 miles , 16 km
Cloud details: Mostly cloudy 1800 ft
Mostly cloudy 2400 ft
Overcast 3100 ft
2019/04/20 19:56 KLZU 201956Z 24011KT 10SM -RA BKN018 BKN024 OVC031 09/07 A2980 RMK AO2 RAB20 SLP102 P0000 T00890072
 
KRMG - Rome, Georgia, USA
Distance from station: W 38mi, 61km
Updated: Sat, 20-Apr-2019 3:53pm EDT
Overcast
Overcast
 Wind from WSW
Wind: WSW 8 mph , 13 km/h
Temperature: 50°F , 10°C
Wind Chill: 47°F , 8°C
Dew Point: 41°F , 5°C
Humidity: 71%
Barometer: 29.83 inHg , 1010.2 hPa
Clouds: Overcast
Visibility: 10 miles , 16 km
Cloud details: Mostly cloudy 2700 ft
Mostly cloudy 3400 ft
Overcast 4300 ft
2019/04/20 19:53 KRMG 201953Z AUTO 25007KT 10SM BKN027 BKN034 OVC043 10/05 A2983 RMK AO2 SLP098 T01000050
KGVL - Gainesville, Georgia, USA
Distance from station: E 39mi, 62km
Updated: Sat, 20-Apr-2019 4:12pm EDT
Light rain, Overcast
Light rain, Overcast
 Wind from W
Wind: W 12 mph , 19 km/h
Temperature: 46°F , 8°C
Wind Chill: 40°F , 4°C
Dew Point: 41°F , 5°C
Humidity: 82%
Barometer: 29.80 inHg , 1009.1 hPa
Summary: Light rain
Clouds: Overcast
Visibility: 9 miles , 14 km
Cloud details: Mostly cloudy 2300 ft
Overcast 3300 ft
2019/04/20 20:12 KGVL 202012Z AUTO 28010KT 9SM -RA BKN023 OVC033 08/05 A2980 RMK AO2 RAB03 P0000 T00830050
KATL - Atlanta, Georgia, USA
Distance from station: S 44mi, 71km
Updated: Sat, 20-Apr-2019 3:52pm EDT
Overcast
Overcast
 Wind from W
Wind: W 14 mph , 22 km/h, Gust: 22 mph , 35 km/h
Temperature: 48°F , 9°C
Wind Chill: 42°F , 6°C
Dew Point: 39°F , 4°C
Humidity: 71%
Barometer: 29.83 inHg , 1010.2 hPa
Clouds: Overcast
Visibility: 10 miles , 16 km
Cloud details: Overcast 2000 ft
2019/04/20 19:52 KATL 201952Z 27012G19KT 10SM OVC020 09/04 A2983 RMK AO2 PK WND 27028/1911 SLP104 T00890044